createdAt,value
2022-12-08T00:01:39.916Z,12.15
2022-12-08T00:07:02.561Z,10.10
2022-12-08T00:12:07.991Z,11.07
2022-12-08T00:17:12.232Z,3.83
2022-12-08T00:22:15.453Z,7.40
2022-12-08T00:32:20.428Z,8.02
2022-12-08T00:37:22.464Z,9.32
2022-12-08T00:42:24.392Z,10.43
2022-12-08T00:47:26.352Z,6.38
2022-12-08T00:52:28.348Z,5.75
2022-12-08T00:57:30.451Z,7.63
2022-12-08T01:02:34.633Z,7.30
2022-12-08T01:07:37.124Z,7.43
2022-12-08T01:12:39.095Z,5.55
2022-12-08T01:17:41.110Z,6.47
2022-12-08T01:22:43.121Z,7.85
2022-12-08T01:27:45.061Z,7.57
2022-12-08T01:32:47.640Z,8.63
2022-12-08T01:37:50.848Z,6.45
2022-12-08T01:48:00.638Z,4.90
2022-12-08T01:53:11.226Z,5.30
2022-12-08T01:58:21.582Z,10.18
2022-12-08T02:03:43.509Z,9.65
2022-12-08T02:08:46.358Z,6.97
2022-12-08T02:13:50.370Z,7.70
2022-12-08T02:19:32.546Z,6.72
2022-12-08T02:24:39.259Z,7.22
2022-12-08T02:30:10.118Z,3.88
2022-12-08T02:35:23.742Z,8.10
2022-12-08T02:40:34.012Z,8.30
2022-12-08T02:45:48.015Z,5.40
2022-12-08T02:50:50.049Z,10.38
2022-12-08T02:56:10.571Z,10.25
2022-12-08T03:01:32.492Z,8.40
2022-12-08T03:06:53.142Z,9.55
2022-12-08T03:12:14.315Z,8.75
2022-12-08T03:17:19.928Z,5.50
2022-12-08T03:22:26.093Z,5.75
2022-12-08T03:27:31.091Z,6.07
2022-12-08T03:32:51.300Z,8.25
2022-12-08T03:38:03.923Z,6.35
2022-12-08T03:43:06.079Z,6.80
2022-12-08T03:48:08.010Z,5.53
2022-12-08T03:53:09.979Z,6.53
2022-12-08T03:58:11.906Z,3.78
2022-12-08T04:03:13.929Z,4.90
2022-12-08T04:08:16.063Z,6.97
2022-12-08T04:13:18.184Z,5.10
2022-12-08T04:18:20.188Z,6.82
2022-12-08T04:23:22.305Z,8.88
2022-12-08T04:28:24.328Z,8.90
2022-12-08T04:33:26.269Z,6.82
2022-12-08T04:38:28.827Z,5.82
2022-12-08T04:43:30.798Z,7.72
2022-12-08T04:48:32.745Z,8.82
2022-12-08T04:53:34.769Z,8.50
2022-12-08T04:58:36.699Z,11.07
2022-12-08T05:03:38.997Z,7.45
2022-12-08T05:08:42.130Z,9.15
2022-12-08T05:13:44.139Z,7.55
2022-12-08T05:18:46.167Z,4.25
2022-12-08T05:23:48.099Z,11.15
2022-12-08T05:28:50.067Z,6.63
2022-12-08T05:33:52.647Z,8.90
2022-12-08T05:38:57.388Z,7.78
2022-12-08T05:43:59.495Z,5.43
2022-12-08T05:49:01.908Z,9.18
2022-12-08T05:54:03.911Z,11.50
2022-12-08T05:59:07.377Z,7.38
2022-12-08T06:04:09.669Z,8.73
2022-12-08T06:09:12.776Z,2.20
2022-12-08T06:14:14.801Z,7.47
2022-12-08T06:19:16.808Z,5.82
2022-12-08T06:24:18.839Z,10.02
2022-12-08T06:29:20.851Z,3.42
2022-12-08T06:34:22.874Z,6.60
2022-12-08T06:39:24.872Z,11.70
2022-12-08T06:44:26.950Z,7.95
2022-12-08T06:49:28.919Z,11.63
2022-12-08T06:54:31.200Z,18.63
2022-12-08T06:59:33.250Z,17.85
2022-12-08T07:04:35.222Z,18.73
2022-12-08T07:09:37.315Z,22.40
2022-12-08T07:14:39.419Z,16.80
2022-12-08T07:19:41.450Z,17.52
2022-12-08T07:24:43.418Z,16.20
2022-12-08T07:29:45.396Z,13.75
2022-12-08T07:34:47.489Z,13.35
2022-12-08T07:39:49.540Z,16.42
2022-12-08T07:44:51.622Z,15.32
2022-12-08T07:49:53.663Z,16.15
2022-12-08T07:54:55.664Z,15.15
2022-12-08T07:59:57.693Z,18.38
2022-12-08T08:04:59.737Z,12.77
2022-12-08T08:10:01.947Z,20.40
2022-12-08T08:15:07.917Z,16.60
2022-12-08T08:20:10.585Z,19.30
2022-12-08T08:25:12.646Z,14.38
2022-12-08T08:30:20.297Z,11.25
2022-12-08T08:35:22.682Z,17.05
2022-12-08T08:40:24.792Z,22.50
2022-12-08T08:45:27.063Z,11.07
2022-12-08T08:50:34.345Z,8.90
2022-12-08T08:55:40.344Z,5.32
2022-12-08T09:00:42.597Z,6.15
2022-12-08T09:05:45.087Z,15.10
2022-12-08T09:10:47.101Z,13.30
2022-12-08T09:15:49.177Z,9.15
2022-12-08T09:20:51.319Z,12.43
2022-12-08T09:25:53.370Z,10.57
2022-12-08T09:30:55.412Z,15.48
2022-12-08T09:35:57.543Z,15.43
2022-12-08T09:41:02.184Z,13.45
2022-12-08T09:46:09.892Z,9.07
2022-12-08T09:51:14.754Z,14.80
2022-12-08T09:56:22.731Z,9.20
2022-12-08T10:01:30.049Z,10.40
2022-12-08T10:06:41.638Z,14.30
2022-12-08T10:11:56.222Z,13.13
2022-12-08T10:17:04.366Z,13.95
2022-12-08T10:22:22.529Z,20.73
2022-12-08T10:27:25.480Z,15.23
2022-12-08T10:32:36.142Z,15.95
2022-12-08T10:37:38.801Z,19.90
2022-12-08T10:42:49.029Z,22.77
2022-12-08T10:47:56.852Z,15.82
2022-12-08T10:53:23.141Z,21.85
2022-12-08T10:58:34.272Z,12.05
2022-12-08T11:03:45.145Z,24.67
2022-12-08T11:08:56.650Z,16.00
2022-12-08T11:13:58.850Z,9.35
2022-12-08T11:19:07.179Z,23.35
2022-12-08T11:24:14.999Z,20.95
2022-12-08T11:29:17.704Z,14.23
2022-12-08T11:34:37.246Z,26.50
2022-12-08T11:39:45.321Z,11.98
2022-12-08T11:44:53.288Z,21.05
2022-12-08T11:50:19.742Z,20.90
2022-12-08T11:55:37.117Z,28.65
2022-12-08T12:00:41.077Z,21.48
2022-12-08T12:06:30.864Z,22.60
2022-12-08T12:11:40.239Z,33.55
2022-12-08T12:16:56.200Z,33.10
2022-12-08T12:22:00.419Z,32.17
2022-12-08T12:27:15.578Z,20.70
2022-12-08T12:32:17.980Z,25.98
2022-12-08T12:37:36.897Z,27.88
2022-12-08T12:42:45.000Z,21.05
2022-12-08T12:47:56.966Z,25.85
2022-12-08T12:53:26.398Z,24.75
2022-12-08T12:58:28.330Z,26.52
2022-12-08T13:03:30.414Z,21.95
2022-12-08T13:08:33.480Z,23.27
2022-12-08T13:13:37.021Z,28.90
2022-12-08T13:18:43.494Z,25.27
2022-12-08T13:23:49.586Z,24.17
2022-12-08T13:29:15.872Z,24.30
2022-12-08T13:34:31.789Z,23.67
2022-12-08T13:39:50.053Z,21.08
2022-12-08T13:52:25.874Z,29.45
2022-12-08T14:01:25.413Z,30.17
2022-12-08T14:06:37.678Z,28.33
2022-12-08T14:12:01.636Z,25.38
2022-12-08T14:17:06.978Z,20.48
2022-12-08T14:22:08.966Z,23.77
2022-12-08T14:27:15.724Z,26.80
2022-12-08T14:32:29.327Z,15.10
2022-12-08T14:37:35.911Z,20.83
2022-12-08T14:42:46.820Z,27.27
2022-12-08T14:47:48.943Z,23.75
2022-12-08T14:52:51.057Z,16.48
2022-12-08T14:57:53.320Z,15.95
2022-12-08T15:02:57.358Z,28.95
2022-12-08T15:08:03.380Z,26.45
2022-12-08T15:13:11.394Z,11.45
2022-12-08T15:18:29.260Z,23.40
2022-12-08T15:23:38.743Z,26.25
2022-12-08T15:28:40.791Z,14.40
2022-12-08T15:33:42.810Z,20.02
2022-12-08T15:38:44.906Z,20.30
2022-12-08T15:43:46.915Z,26.38
2022-12-08T15:48:51.394Z,9.48
2022-12-08T15:53:57.016Z,17.80
2022-12-08T15:58:59.317Z,12.25
2022-12-08T16:09:26.547Z,11.50
2022-12-08T16:19:50.955Z,16.42
2022-12-08T16:24:53.328Z,14.57
2022-12-08T16:29:56.861Z,19.60
2022-12-08T16:34:59.154Z,24.30
2022-12-08T16:40:01.416Z,70.13
2022-12-08T16:45:15.103Z,29.48
2022-12-08T16:50:23.528Z,27.20
2022-12-08T16:55:26.411Z,26.40
2022-12-08T17:00:30.200Z,20.58
2022-12-08T17:05:32.866Z,19.50
2022-12-08T17:10:38.677Z,10.60
2022-12-08T17:15:41.288Z,10.55
2022-12-08T17:20:43.723Z,22.48
2022-12-08T17:25:56.968Z,14.77
2022-12-08T17:31:00.602Z,6.43
2022-12-08T17:36:02.804Z,24.08
2022-12-08T17:41:06.749Z,34.08
2022-12-08T17:46:08.971Z,22.25
2022-12-08T17:51:11.207Z,35.00
2022-12-08T17:56:20.113Z,24.50
2022-12-08T18:01:23.844Z,21.55
2022-12-08T18:06:30.958Z,16.52
2022-12-08T18:11:35.267Z,40.10
2022-12-08T18:16:40.520Z,26.17
2022-12-08T18:21:44.346Z,43.28
2022-12-08T18:26:47.720Z,43.28
2022-12-08T18:31:51.372Z,28.58
2022-12-08T18:36:54.572Z,23.35
2022-12-08T18:46:59.953Z,35.00
2022-12-08T18:52:02.780Z,30.05
2022-12-08T18:57:06.807Z,25.40
2022-12-08T19:02:11.980Z,40.95
2022-12-08T19:07:17.742Z,33.20
2022-12-08T19:12:20.663Z,28.45
2022-12-08T19:17:23.272Z,35.30
2022-12-08T19:22:26.430Z,29.48
2022-12-08T19:32:32.458Z,33.00
2022-12-08T19:37:37.234Z,36.45
2022-12-08T19:43:00.108Z,28.75
2022-12-08T19:48:06.210Z,37.15
2022-12-08T19:53:15.051Z,23.05
2022-12-08T19:58:20.716Z,22.63
2022-12-08T20:03:24.154Z,41.40
2022-12-08T20:08:27.335Z,26.23
2022-12-08T20:18:45.444Z,29.85
2022-12-08T20:23:52.187Z,30.58
2022-12-08T20:28:56.935Z,26.80
2022-12-08T20:34:00.536Z,16.02
2022-12-08T20:44:07.242Z,15.60
2022-12-08T20:49:09.916Z,26.80
2022-12-08T20:54:13.362Z,16.10
2022-12-08T20:59:18.915Z,20.85
2022-12-08T21:04:22.228Z,18.50
2022-12-08T21:14:27.052Z,18.40
2022-12-08T21:19:29.241Z,21.33
2022-12-08T21:24:34.334Z,28.40
2022-12-08T21:29:36.870Z,29.58
2022-12-08T21:34:39.112Z,26.55
2022-12-08T21:39:41.249Z,23.08
2022-12-08T21:44:43.321Z,30.90
2022-12-08T21:49:45.625Z,13.70
2022-12-08T21:54:47.697Z,30.60
2022-12-08T21:59:49.737Z,28.55
2022-12-08T22:04:52.976Z,20.75
2022-12-08T22:09:55.197Z,24.92
2022-12-08T22:14:57.513Z,29.77
2022-12-08T22:19:59.757Z,23.77
2022-12-08T22:25:03.543Z,32.72
2022-12-08T22:30:06.639Z,21.55
2022-12-08T22:35:09.811Z,12.05
2022-12-08T22:40:12.274Z,25.00
2022-12-08T22:45:14.754Z,24.50
2022-12-08T22:50:16.897Z,19.42
2022-12-08T22:55:18.933Z,17.10
2022-12-08T23:00:20.995Z,31.38
2022-12-08T23:05:23.267Z,19.42
2022-12-08T23:10:25.485Z,20.50
2022-12-08T23:15:28.078Z,25.80
2022-12-08T23:20:30.170Z,22.55
2022-12-08T23:25:32.137Z,30.30
2022-12-08T23:30:34.271Z,22.63
2022-12-08T23:35:36.353Z,18.60
2022-12-08T23:40:38.474Z,15.70
2022-12-08T23:45:40.632Z,17.42
2022-12-08T23:50:42.810Z,23.08
2022-12-08T23:55:44.875Z,32.72
